createdAt,value
2018-05-10T00:00:40.972Z,46.4
2018-05-10T00:01:40.994Z,46.42
2018-05-10T00:02:41.071Z,46.38
2018-05-10T00:03:41.028Z,46.39
2018-05-10T00:04:41.144Z,46.44
2018-05-10T00:05:41.130Z,46.39
2018-05-10T00:06:40.986Z,46.35
2018-05-10T00:07:41.063Z,46.39
2018-05-10T00:08:41.016Z,46.35
2018-05-10T00:09:41.010Z,46.39
2018-05-10T00:10:41.195Z,46.44
2018-05-10T00:11:40.920Z,46.38
2018-05-10T00:12:41.097Z,46.38
2018-05-10T00:13:41.011Z,46.42
2018-05-10T00:14:41.120Z,46.39
2018-05-10T00:15:41.149Z,46.44
2018-05-10T00:16:41.101Z,46.39
2018-05-10T00:17:41.025Z,46.39
2018-05-10T00:18:41.265Z,46.41
2018-05-10T00:19:41.103Z,46.44
2018-05-10T00:20:41.046Z,46.36
2018-05-10T00:21:41.424Z,46.44
2018-05-10T00:22:50.984Z,46.4
2018-05-10T00:23:41.256Z,46.37
2018-05-10T00:24:41.090Z,46.35
2018-05-10T00:25:41.119Z,46.42
2018-05-10T00:26:40.967Z,46.37
2018-05-10T00:27:40.925Z,46.38
2018-05-10T00:28:41.178Z,46.45
2018-05-10T00:29:41.141Z,46.34
2018-05-10T00:30:41.021Z,46.45
2018-05-10T00:31:41.159Z,46.47
2018-05-10T00:32:41.016Z,46.38
2018-05-10T00:33:40.934Z,46.42
2018-05-10T00:34:41.151Z,46.46
2018-05-10T00:35:41.030Z,46.44
2018-05-10T00:36:40.991Z,46.39
2018-05-10T00:37:41.274Z,46.45
2018-05-10T00:38:41.070Z,46.39
2018-05-10T00:39:40.996Z,46.34
2018-05-10T00:40:41.091Z,46.41
2018-05-10T00:41:40.980Z,46.39
2018-05-10T00:42:41.066Z,46.36
2018-05-10T00:43:40.996Z,46.45
2018-05-10T00:44:41.084Z,46.39
2018-05-10T00:45:41.188Z,46.47
2018-05-10T00:46:41.169Z,46.47
2018-05-10T00:47:41.059Z,46.41
2018-05-10T00:48:41.051Z,46.41
2018-05-10T00:49:40.865Z,46.44
2018-05-10T00:50:40.971Z,46.4
2018-05-10T00:51:41.008Z,46.44
2018-05-10T00:52:40.995Z,46.46
2018-05-10T00:53:41.169Z,46.46
2018-05-10T00:54:41.015Z,46.42
2018-05-10T00:55:40.961Z,46.38
2018-05-10T00:56:41.173Z,46.37
2018-05-10T00:57:40.975Z,46.38
2018-05-10T00:58:41.066Z,46.42
2018-05-10T00:59:41.045Z,46.37
2018-05-10T01:00:40.976Z,46.45
2018-05-10T01:01:40.905Z,46.46
2018-05-10T01:02:41.165Z,46.4
2018-05-10T01:03:40.959Z,46.45
2018-05-10T01:04:41.211Z,46.48
2018-05-10T01:05:41.091Z,46.4
2018-05-10T01:06:41.041Z,46.46
2018-05-10T01:07:40.965Z,46.48
2018-05-10T01:08:41.216Z,46.45
2018-05-10T01:09:41.059Z,46.38
2018-05-10T01:10:41.117Z,46.53
2018-05-10T01:11:41.034Z,46.37
2018-05-10T01:12:40.903Z,46.46
2018-05-10T01:13:41.061Z,46.46
2018-05-10T01:14:41.054Z,46.41
2018-05-10T01:15:41.185Z,46.46
2018-05-10T01:16:41.207Z,46.46
2018-05-10T01:17:40.935Z,46.47
2018-05-10T01:18:41.195Z,46.43
2018-05-10T01:19:41.160Z,46.45
2018-05-10T01:20:41.001Z,46.45
2018-05-10T01:21:40.977Z,46.45
2018-05-10T01:22:41.168Z,46.45
2018-05-10T01:23:40.917Z,46.41
2018-05-10T01:24:41.115Z,46.47
2018-05-10T01:25:40.968Z,46.52
2018-05-10T01:26:40.994Z,46.41
2018-05-10T01:27:41.113Z,46.4
2018-05-10T01:28:40.998Z,46.5
2018-05-10T01:29:40.989Z,46.43
2018-05-10T01:30:41.101Z,46.49
2018-05-10T01:31:41.096Z,46.49
2018-05-10T01:32:41.113Z,46.45
2018-05-10T01:33:41.245Z,46.44
2018-05-10T01:34:40.929Z,46.48
2018-05-10T01:35:41.146Z,46.44
2018-05-10T01:36:41.000Z,46.49
2018-05-10T01:37:41.169Z,46.54
2018-05-10T01:38:41.061Z,46.51
2018-05-10T01:39:41.192Z,46.45
2018-05-10T01:40:40.981Z,46.48
2018-05-10T01:41:41.108Z,46.45
2018-05-10T01:42:41.127Z,46.51
2018-05-10T01:43:41.274Z,46.54
2018-05-10T01:44:41.039Z,46.49
2018-05-10T01:45:40.995Z,46.46
2018-05-10T01:46:41.201Z,46.62
2018-05-10T01:47:41.214Z,46.48
2018-05-10T01:48:41.076Z,46.58
2018-05-10T01:49:41.028Z,46.52
2018-05-10T01:50:41.162Z,46.5
2018-05-10T01:51:41.145Z,46.52
2018-05-10T01:52:40.895Z,46.53
2018-05-10T01:53:41.036Z,46.51
2018-05-10T01:54:41.002Z,46.54
2018-05-10T01:55:41.140Z,46.55
2018-05-10T01:56:40.949Z,46.5
2018-05-10T01:57:41.124Z,46.53
2018-05-10T01:58:41.211Z,46.58
2018-05-10T01:59:41.094Z,46.55
2018-05-10T02:00:41.031Z,46.58
2018-05-10T02:01:40.984Z,46.51
2018-05-10T02:02:41.141Z,46.5
2018-05-10T02:03:41.152Z,46.57
2018-05-10T02:04:41.065Z,46.54
2018-05-10T02:05:41.133Z,46.55
2018-05-10T02:06:41.063Z,46.57
2018-05-10T02:07:40.935Z,46.54
2018-05-10T02:08:41.057Z,46.5
2018-05-10T02:09:40.946Z,46.57
2018-05-10T02:10:40.942Z,46.52
2018-05-10T02:11:41.063Z,46.46
2018-05-10T02:12:41.095Z,46.56
2018-05-10T02:13:41.115Z,46.54
2018-05-10T02:14:41.101Z,46.58
2018-05-10T02:15:41.082Z,46.48
2018-05-10T02:16:41.114Z,46.6
2018-05-10T02:17:40.938Z,46.5
2018-05-10T02:18:40.894Z,46.57
2018-05-10T02:19:41.141Z,46.59
2018-05-10T02:20:41.094Z,46.55
2018-05-10T02:21:41.141Z,46.54
2018-05-10T02:22:41.026Z,46.58
2018-05-10T02:23:41.002Z,46.57
2018-05-10T02:24:41.003Z,46.57
2018-05-10T02:25:41.056Z,46.58
2018-05-10T02:26:40.852Z,46.54
2018-05-10T02:27:41.047Z,46.57
2018-05-10T02:28:40.988Z,46.59
2018-05-10T02:29:41.050Z,46.55
2018-05-10T02:30:41.070Z,46.6
2018-05-10T02:31:41.163Z,46.63
2018-05-10T02:32:41.055Z,46.55
2018-05-10T02:33:41.018Z,46.64
2018-05-10T02:34:41.090Z,46.63
2018-05-10T02:35:41.140Z,46.61
2018-05-10T02:36:41.135Z,46.63
2018-05-10T02:37:40.988Z,46.65
2018-05-10T02:38:40.925Z,46.61
2018-05-10T02:39:41.176Z,46.62
2018-05-10T02:41:00.412Z,46.58
2018-05-10T02:41:40.963Z,46.59
2018-05-10T02:42:41.066Z,46.62
2018-05-10T02:43:40.960Z,46.61
2018-05-10T02:44:41.172Z,46.65
2018-05-10T02:45:40.900Z,46.67
2018-05-10T02:46:41.011Z,46.64
2018-05-10T02:47:41.133Z,46.64
2018-05-10T02:48:40.954Z,46.58
2018-05-10T02:49:41.181Z,46.71
2018-05-10T02:50:40.979Z,46.61
2018-05-10T02:51:40.949Z,46.67
2018-05-10T02:52:41.094Z,46.69
2018-05-10T02:53:41.029Z,46.61
2018-05-10T02:54:41.212Z,46.67
2018-05-10T02:55:41.033Z,46.7
2018-05-10T02:56:41.128Z,46.61
2018-05-10T02:57:41.141Z,46.67
2018-05-10T02:58:41.047Z,46.64
2018-05-10T02:59:40.927Z,46.63
2018-05-10T03:00:41.104Z,46.68
2018-05-10T03:01:41.495Z,46.75
2018-05-10T03:02:41.130Z,46.66
2018-05-10T03:03:41.000Z,46.68
2018-05-10T03:04:41.126Z,46.72
2018-05-10T03:05:40.990Z,46.65
2018-05-10T03:06:41.130Z,46.71
2018-05-10T03:07:41.035Z,46.69
2018-05-10T03:08:40.871Z,46.68
2018-05-10T03:09:41.011Z,46.68
2018-05-10T03:10:41.041Z,46.74
2018-05-10T03:11:40.898Z,46.67
2018-05-10T03:12:41.078Z,46.74
2018-05-10T03:13:40.922Z,46.7
2018-05-10T03:14:41.034Z,46.7
2018-05-10T03:15:41.053Z,46.65
2018-05-10T03:16:41.099Z,46.77
2018-05-10T03:17:40.953Z,46.69
2018-05-10T03:18:41.047Z,46.69
2018-05-10T03:19:40.875Z,46.71
2018-05-10T03:20:40.904Z,46.72
2018-05-10T03:21:40.969Z,46.73
2018-05-10T03:22:40.842Z,46.73
2018-05-10T03:23:40.977Z,46.69
2018-05-10T03:24:40.994Z,46.71
2018-05-10T03:25:41.048Z,46.76
2018-05-10T03:26:40.974Z,46.68
2018-05-10T03:27:40.879Z,46.75
2018-05-10T03:28:40.953Z,46.69
2018-05-10T03:29:41.095Z,46.69
2018-05-10T03:30:40.846Z,46.76
2018-05-10T03:31:41.105Z,46.75
2018-05-10T03:32:40.998Z,46.71
2018-05-10T03:33:41.187Z,46.73
2018-05-10T03:34:40.975Z,46.79
2018-05-10T03:35:40.863Z,46.71
2018-05-10T03:36:41.117Z,46.77
2018-05-10T03:37:40.989Z,46.73
2018-05-10T03:38:41.130Z,46.72
2018-05-10T03:39:41.103Z,46.77
2018-05-10T03:40:40.984Z,46.8
2018-05-10T03:41:40.855Z,46.76
2018-05-10T03:42:41.031Z,46.75
2018-05-10T03:43:41.122Z,46.79
2018-05-10T03:44:41.119Z,46.74
2018-05-10T03:45:40.930Z,46.8
2018-05-10T03:46:40.952Z,46.87
2018-05-10T03:47:41.157Z,46.71
2018-05-10T03:48:40.867Z,46.81
2018-05-10T03:49:41.090Z,46.8
2018-05-10T03:50:41.084Z,46.72
2018-05-10T03:51:41.075Z,46.8
2018-05-10T03:52:40.980Z,46.84
2018-05-10T03:53:40.925Z,46.74
2018-05-10T03:54:41.043Z,46.74
2018-05-10T03:55:41.025Z,46.81
2018-05-10T03:56:40.859Z,46.74
2018-05-10T03:57:41.147Z,46.78
2018-05-10T03:58:40.954Z,46.76
2018-05-10T03:59:40.986Z,46.77
2018-05-10T04:00:40.894Z,46.79
2018-05-10T04:01:41.140Z,46.76
2018-05-10T04:02:40.939Z,46.72
2018-05-10T04:03:40.936Z,46.75
2018-05-10T04:04:41.004Z,46.81
2018-05-10T04:05:41.130Z,46.78
2018-05-10T04:06:40.971Z,46.8
2018-05-10T04:07:41.000Z,46.78
2018-05-10T04:08:41.051Z,46.8
2018-05-10T04:09:41.123Z,46.8
2018-05-10T04:10:41.000Z,46.82
2018-05-10T04:11:40.990Z,46.79
2018-05-10T04:12:41.015Z,46.82
2018-05-10T04:13:40.977Z,46.83
2018-05-10T04:14:40.936Z,46.78
2018-05-10T04:15:40.978Z,46.78
2018-05-10T04:16:40.977Z,46.8
2018-05-10T04:17:40.913Z,46.79
2018-05-10T04:18:40.846Z,46.8
2018-05-10T04:19:40.934Z,46.82
2018-05-10T04:20:41.011Z,46.82
2018-05-10T04:21:40.876Z,46.78
2018-05-10T04:22:40.930Z,46.86
2018-05-10T04:23:41.112Z,46.81
2018-05-10T04:24:40.936Z,46.79
2018-05-10T04:25:40.877Z,46.76
2018-05-10T04:26:41.087Z,46.78
2018-05-10T04:27:40.910Z,46.84
2018-05-10T04:28:41.038Z,46.8
2018-05-10T04:29:40.942Z,46.79
2018-05-10T04:30:41.001Z,46.8
2018-05-10T04:31:40.946Z,46.89
2018-05-10T04:32:41.044Z,46.77
2018-05-10T04:33:40.924Z,46.81
2018-05-10T04:34:41.058Z,46.83
2018-05-10T04:35:41.348Z,46.82
2018-05-10T04:36:40.865Z,46.75
2018-05-10T04:37:41.059Z,46.85
2018-05-10T04:38:40.881Z,46.83
2018-05-10T04:39:40.917Z,46.81
2018-05-10T04:40:41.037Z,46.82
2018-05-10T04:41:40.901Z,46.82
2018-05-10T04:42:40.966Z,46.82
2018-05-10T04:43:40.906Z,46.77
2018-05-10T04:44:41.107Z,46.78
2018-05-10T04:45:41.003Z,46.79
2018-05-10T04:46:40.831Z,46.85
2018-05-10T04:47:40.827Z,46.77
2018-05-10T04:48:41.130Z,46.79
2018-05-10T04:49:41.100Z,46.8
2018-05-10T04:50:40.846Z,46.8
2018-05-10T04:51:40.924Z,46.74
2018-05-10T04:52:41.066Z,46.8
2018-05-10T04:53:41.038Z,46.71
2018-05-10T04:54:41.207Z,46.81
2018-05-10T04:55:40.902Z,46.83
2018-05-10T04:56:41.066Z,46.75
2018-05-10T04:57:40.999Z,46.74
2018-05-10T04:58:40.887Z,46.83
2018-05-10T04:59:40.979Z,46.78
2018-05-10T05:00:40.895Z,46.8
2018-05-10T05:01:40.859Z,46.8
2018-05-10T05:02:41.003Z,46.75
2018-05-10T05:03:40.888Z,46.82
2018-05-10T05:04:40.953Z,46.8
2018-05-10T05:05:41.090Z,46.77
2018-05-10T05:06:40.985Z,46.77
2018-05-10T05:07:41.008Z,46.79
2018-05-10T05:08:41.143Z,46.79
2018-05-10T05:09:40.841Z,46.78
2018-05-10T05:10:41.018Z,46.77
2018-05-10T05:11:40.946Z,46.73
2018-05-10T05:12:41.015Z,46.75
2018-05-10T05:13:40.902Z,46.76
2018-05-10T05:14:40.868Z,46.74
2018-05-10T05:15:40.899Z,46.74
2018-05-10T05:16:41.079Z,46.8
2018-05-10T05:17:40.995Z,46.74
2018-05-10T05:18:40.918Z,46.78
2018-05-10T05:19:40.994Z,46.78
2018-05-10T05:20:40.890Z,46.71
2018-05-10T05:21:41.018Z,46.73
2018-05-10T05:22:41.070Z,46.78
2018-05-10T05:23:41.119Z,46.73
2018-05-10T05:24:41.008Z,46.7
2018-05-10T05:25:40.886Z,46.76
2018-05-10T05:26:41.095Z,46.76
2018-05-10T05:27:40.901Z,46.73
2018-05-10T05:28:41.023Z,46.76
2018-05-10T05:29:40.914Z,46.72
2018-05-10T05:30:40.920Z,46.77
2018-05-10T05:31:40.846Z,46.73
2018-05-10T05:32:41.091Z,46.75
2018-05-10T05:33:41.014Z,46.77
2018-05-10T05:34:41.052Z,46.79
2018-05-10T05:35:41.085Z,46.76
2018-05-10T05:36:41.079Z,46.79
2018-05-10T05:37:40.884Z,46.75
2018-05-10T05:38:41.076Z,46.77
2018-05-10T05:39:41.050Z,46.75
2018-05-10T05:40:41.041Z,46.73
2018-05-10T05:41:41.040Z,46.74
2018-05-10T05:42:40.870Z,46.74
2018-05-10T05:43:40.898Z,46.78
2018-05-10T05:44:41.022Z,46.74
2018-05-10T05:45:41.123Z,46.71
2018-05-10T05:46:41.064Z,46.74
2018-05-10T05:47:41.199Z,46.73
2018-05-10T05:48:40.911Z,46.76
2018-05-10T05:49:40.867Z,46.77
2018-05-10T05:50:40.855Z,46.72
2018-05-10T05:51:40.951Z,46.79
2018-05-10T05:52:41.046Z,46.75
2018-05-10T05:53:40.771Z,46.73
2018-05-10T05:54:40.795Z,46.77
2018-05-10T05:55:40.944Z,46.76
2018-05-10T05:56:40.937Z,46.72
2018-05-10T05:57:40.957Z,46.73
2018-05-10T05:58:40.975Z,46.8
2018-05-10T05:59:40.868Z,46.67
2018-05-10T06:00:40.833Z,46.72
2018-05-10T06:01:41.036Z,46.75
2018-05-10T06:02:41.156Z,46.71
2018-05-10T06:03:41.034Z,46.73
2018-05-10T06:04:40.854Z,46.74
2018-05-10T06:05:41.201Z,46.69
2018-05-10T06:06:41.039Z,46.72
2018-05-10T06:07:40.857Z,46.77
2018-05-10T06:08:41.091Z,46.68
2018-05-10T06:09:40.914Z,46.73
2018-05-10T06:10:40.885Z,46.77
2018-05-10T06:11:41.004Z,46.74
2018-05-10T06:12:40.903Z,46.7
2018-05-10T06:13:41.349Z,46.74
2018-05-10T06:14:40.932Z,46.69
2018-05-10T06:15:40.881Z,46.74
2018-05-10T06:16:40.876Z,46.8
2018-05-10T06:17:40.899Z,46.72
2018-05-10T06:18:41.059Z,46.77
2018-05-10T06:19:41.035Z,46.72
2018-05-10T06:20:41.228Z,46.71
2018-05-10T06:21:40.975Z,46.78
2018-05-10T06:22:40.989Z,46.77
2018-05-10T06:23:41.213Z,46.67
2018-05-10T06:24:40.970Z,46.69
2018-05-10T06:25:40.981Z,46.79
2018-05-10T06:26:40.794Z,46.7
2018-05-10T06:27:40.957Z,46.74
2018-05-10T06:28:41.072Z,46.67
2018-05-10T06:29:40.933Z,46.71
2018-05-10T06:30:40.973Z,46.7
2018-05-10T06:31:41.047Z,46.7
2018-05-10T06:32:41.053Z,46.68
2018-05-10T06:33:40.939Z,46.7
2018-05-10T06:34:41.052Z,46.75
2018-05-10T06:35:40.946Z,46.71
2018-05-10T06:36:40.910Z,46.69
2018-05-10T06:37:40.788Z,46.71
2018-05-10T06:38:40.840Z,46.7
2018-05-10T06:39:40.931Z,46.68
2018-05-10T06:40:41.039Z,46.7
2018-05-10T06:41:41.018Z,46.68
2018-05-10T06:42:40.990Z,46.69
2018-05-10T06:43:41.020Z,46.73
2018-05-10T06:44:40.832Z,46.66
2018-05-10T06:45:40.947Z,46.71
2018-05-10T06:46:40.962Z,46.72
2018-05-10T06:47:40.877Z,46.61
2018-05-10T06:48:40.809Z,46.74
2018-05-10T06:49:40.924Z,46.71
2018-05-10T06:50:41.074Z,46.69
2018-05-10T06:51:41.070Z,46.68
2018-05-10T06:52:40.854Z,46.69
2018-05-10T06:53:41.003Z,46.66
2018-05-10T06:54:41.025Z,46.7
2018-05-10T06:55:40.843Z,46.74
2018-05-10T06:56:40.962Z,46.7
2018-05-10T06:57:40.854Z,46.64
2018-05-10T06:58:41.160Z,46.76
2018-05-10T06:59:50.839Z,46.64
2018-05-10T07:00:40.847Z,46.68
2018-05-10T07:01:41.026Z,46.74
2018-05-10T07:02:41.028Z,46.63
2018-05-10T07:03:41.073Z,46.63
2018-05-10T07:04:40.824Z,46.77
2018-05-10T07:05:41.023Z,46.71
2018-05-10T07:06:40.825Z,46.77
2018-05-10T07:07:41.048Z,46.77
2018-05-10T07:08:40.827Z,46.67
2018-05-10T07:09:41.187Z,46.64
2018-05-10T07:10:41.393Z,46.7
2018-05-10T07:11:40.781Z,46.64
2018-05-10T07:12:41.113Z,46.66
2018-05-10T07:13:40.911Z,46.67
2018-05-10T07:14:40.966Z,46.63
2018-05-10T07:15:41.246Z,46.68
2018-05-10T07:16:40.869Z,46.75
2018-05-10T07:17:40.970Z,46.65
2018-05-10T07:18:40.898Z,46.69
2018-05-10T07:19:41.028Z,46.74
2018-05-10T07:20:41.034Z,46.65
2018-05-10T07:21:40.968Z,46.72
2018-05-10T07:22:40.851Z,46.73
2018-05-10T07:23:40.967Z,46.72
2018-05-10T07:24:41.039Z,46.69
2018-05-10T07:25:41.030Z,46.7
2018-05-10T07:26:41.008Z,46.62
2018-05-10T07:27:40.745Z,46.62
2018-05-10T07:28:40.990Z,46.75
2018-05-10T07:29:41.002Z,46.68
2018-05-10T07:30:40.934Z,46.69
2018-05-10T07:31:40.863Z,46.72
2018-05-10T07:32:40.945Z,46.63
2018-05-10T07:33:40.987Z,46.67
2018-05-10T07:34:40.987Z,46.76
2018-05-10T07:35:40.922Z,46.69
2018-05-10T07:36:40.991Z,46.72
2018-05-10T07:37:41.067Z,46.73
2018-05-10T07:38:40.809Z,46.68
2018-05-10T07:39:40.797Z,46.71
2018-05-10T07:40:40.996Z,46.68
2018-05-10T07:41:41.015Z,46.68
2018-05-10T07:42:40.833Z,46.71
2018-05-10T07:43:40.872Z,46.75
2018-05-10T07:44:40.831Z,46.67
2018-05-10T07:45:40.836Z,46.7
2018-05-10T07:46:41.014Z,46.71
2018-05-10T07:47:40.792Z,46.87
2018-05-10T07:48:40.955Z,46.86
2018-05-10T07:49:40.805Z,46.95
2018-05-10T07:50:40.844Z,47.03
2018-05-10T07:51:40.867Z,46.95
2018-05-10T07:52:40.963Z,46.99
2018-05-10T07:53:40.935Z,46.99
2018-05-10T07:54:41.057Z,46.86
2018-05-10T07:55:40.871Z,46.91
2018-05-10T07:56:40.738Z,46.83
2018-05-10T07:57:40.838Z,46.88
2018-05-10T07:58:40.968Z,46.91
2018-05-10T07:59:40.933Z,47
2018-05-10T08:00:40.873Z,46.97
2018-05-10T08:01:41.028Z,46.95
2018-05-10T08:02:40.869Z,46.78
2018-05-10T08:03:41.018Z,46.91
2018-05-10T08:04:40.943Z,46.99
2018-05-10T08:05:41.049Z,46.97
2018-05-10T08:06:40.947Z,47.06
2018-05-10T08:07:40.757Z,47.06
2018-05-10T08:08:40.898Z,47.17
2018-05-10T08:09:40.921Z,46.96
2018-05-10T08:10:41.042Z,46.97
2018-05-10T08:11:40.869Z,46.98
2018-05-10T08:12:40.975Z,46.99
2018-05-10T08:13:40.900Z,47.06
2018-05-10T08:14:41.017Z,46.96
2018-05-10T08:15:40.909Z,47.01
2018-05-10T08:16:41.059Z,47.07
2018-05-10T08:17:40.904Z,46.96
2018-05-10T08:18:40.897Z,46.96
2018-05-10T08:19:40.951Z,46.96
2018-05-10T08:20:41.032Z,46.91
2018-05-10T08:21:41.045Z,46.93
2018-05-10T08:22:40.936Z,47.01
2018-05-10T08:23:40.896Z,46.89
2018-05-10T08:24:41.102Z,46.92
2018-05-10T08:25:40.821Z,46.99
2018-05-10T08:26:40.991Z,46.85
2018-05-10T08:27:40.929Z,46.87
2018-05-10T08:28:41.090Z,46.93
2018-05-10T08:29:41.064Z,46.77
2018-05-10T08:30:41.083Z,46.88
2018-05-10T08:31:40.921Z,46.89
2018-05-10T08:32:40.846Z,46.88
2018-05-10T08:33:41.032Z,47.25
2018-05-10T08:34:40.903Z,47.2
2018-05-10T08:35:41.213Z,47.1
2018-05-10T08:36:41.057Z,47.16
2018-05-10T08:37:40.796Z,47.06
2018-05-10T08:38:40.972Z,46.98
2018-05-10T08:39:41.058Z,47.04
2018-05-10T08:40:40.854Z,47.18
2018-05-10T08:41:40.926Z,47.09
2018-05-10T08:42:40.946Z,47.17
2018-05-10T08:43:41.004Z,47.18
2018-05-10T08:44:40.854Z,47.03
2018-05-10T08:45:40.825Z,47.3
2018-05-10T08:46:41.010Z,47.2
2018-05-10T08:47:40.879Z,46.98
2018-05-10T08:48:41.000Z,47.14
2018-05-10T08:49:40.877Z,47.19
2018-05-10T08:50:40.988Z,47.08
2018-05-10T08:51:40.805Z,47.08
2018-05-10T08:52:41.024Z,47.2
2018-05-10T08:53:40.840Z,47.09
2018-05-10T08:54:40.981Z,47.16
2018-05-10T08:55:40.956Z,47.23
2018-05-10T08:56:40.787Z,47.06
2018-05-10T08:57:40.833Z,47.2
2018-05-10T08:59:00.844Z,47.13
2018-05-10T08:59:40.977Z,47.08
2018-05-10T09:00:40.954Z,47.11
2018-05-10T09:01:40.982Z,47.34
2018-05-10T09:02:40.806Z,47.8
2018-05-10T09:03:40.817Z,48.09
2018-05-10T09:04:41.198Z,48.27
2018-05-10T09:05:40.876Z,48.39
2018-05-10T09:06:41.116Z,48.35
2018-05-10T09:07:40.801Z,48.41
2018-05-10T09:08:40.920Z,48.34
2018-05-10T09:09:40.952Z,48.42
2018-05-10T09:10:40.972Z,48.44
2018-05-10T09:11:40.915Z,48.28
2018-05-10T09:12:40.747Z,48.33
2018-05-10T09:13:40.854Z,48.24
2018-05-10T09:14:40.955Z,48.18
2018-05-10T09:15:40.865Z,48.23
2018-05-10T09:16:41.053Z,48.24
2018-05-10T09:17:40.956Z,48.06
2018-05-10T09:18:40.937Z,48.07
2018-05-10T09:19:41.042Z,48.05
2018-05-10T09:20:41.039Z,48.01
2018-05-10T09:21:41.176Z,48.14
2018-05-10T09:22:41.052Z,48.14
2018-05-10T09:23:40.875Z,48.14
2018-05-10T09:24:41.111Z,48.31
2018-05-10T09:25:40.985Z,48.24
2018-05-10T09:27:10.858Z,48.21
2018-05-10T09:27:41.002Z,48.36
2018-05-10T09:28:41.114Z,48.25
2018-05-10T09:29:40.924Z,48.16
2018-05-10T09:30:41.051Z,48.25
2018-05-10T09:31:41.035Z,48.14
2018-05-10T09:32:40.849Z,48.08
2018-05-10T09:33:40.833Z,48.23
2018-05-10T09:34:40.982Z,48.22
2018-05-10T09:35:40.837Z,48.25
2018-05-10T09:36:41.222Z,48.25
2018-05-10T09:37:40.876Z,48.26
2018-05-10T09:38:43.312Z,48.16
2018-05-10T09:39:41.078Z,48.51
2018-05-10T09:40:40.892Z,48.64
2018-05-10T09:41:40.873Z,48.48
2018-05-10T09:42:40.826Z,48.85
2018-05-10T09:43:41.068Z,49.37
2018-05-10T09:44:41.052Z,50.28
2018-05-10T09:45:41.012Z,49.31
2018-05-10T09:46:40.964Z,48.92
2018-05-10T09:47:40.938Z,48.76
2018-05-10T09:48:41.135Z,49.03
2018-05-10T09:49:40.935Z,48.73
2018-05-10T09:50:40.847Z,48.76
2018-05-10T09:51:40.945Z,48.93
2018-05-10T09:52:41.028Z,49
2018-05-10T09:53:41.199Z,48.94
2018-05-10T09:54:40.814Z,49.17
2018-05-10T09:55:41.015Z,49.01
2018-05-10T09:56:40.875Z,48.98
2018-05-10T09:57:41.279Z,49.25
2018-05-10T09:58:40.863Z,48.96
2018-05-10T09:59:41.133Z,48.64
2018-05-10T10:00:40.913Z,48.57
2018-05-10T10:01:41.053Z,48.67
2018-05-10T10:02:41.099Z,48.62
2018-05-10T10:03:40.800Z,48.76
2018-05-10T10:04:40.977Z,48.87
2018-05-10T10:05:40.869Z,48.72
2018-05-10T10:06:41.083Z,48.66
2018-05-10T10:07:40.954Z,48.92
2018-05-10T10:08:40.985Z,48.96
2018-05-10T10:09:40.921Z,49.13
2018-05-10T10:10:41.085Z,48.83
2018-05-10T10:11:41.127Z,48.68
2018-05-10T10:12:40.796Z,48.65
2018-05-10T10:13:40.843Z,48.68
2018-05-10T10:14:40.968Z,48.79
2018-05-10T10:15:20.631Z,49.98
2018-05-10T10:16:20.560Z,48.64
2018-05-10T10:17:20.823Z,48.07
2018-05-10T10:18:20.812Z,47.74
2018-05-10T10:19:20.680Z,47.64
2018-05-10T10:20:20.833Z,47.37
2018-05-10T10:21:20.677Z,47.35
2018-05-10T10:22:20.645Z,47.28
2018-05-10T10:23:20.695Z,47.27
2018-05-10T10:24:20.803Z,47.2
2018-05-10T10:25:20.924Z,47.11
2018-05-10T10:26:20.613Z,47.08
2018-05-10T10:27:20.700Z,46.95
2018-05-10T10:28:20.765Z,47.04
2018-05-10T10:29:20.623Z,47
2018-05-10T10:30:20.681Z,46.86
2018-05-10T10:31:20.742Z,46.83
2018-05-10T10:32:20.898Z,46.8
2018-05-10T10:33:20.784Z,46.7
2018-05-10T10:34:20.782Z,46.7
2018-05-10T10:35:20.715Z,46.54
2018-05-10T10:36:20.798Z,46.51
2018-05-10T10:37:21.018Z,46.41
2018-05-10T10:38:20.900Z,46.4
2018-05-10T10:39:20.703Z,46.25
2018-05-10T10:40:20.809Z,46.18
2018-05-10T10:41:20.527Z,46.27
2018-05-10T10:42:20.656Z,46.43
2018-05-10T10:43:20.773Z,46.31
2018-05-10T10:44:20.699Z,46.31
2018-05-10T10:45:20.781Z,47.05
2018-05-10T10:46:20.788Z,46.9
2018-05-10T10:47:20.829Z,46.91
2018-05-10T10:48:20.868Z,46.83
2018-05-10T10:49:20.913Z,46.92
2018-05-10T10:50:20.711Z,46.98
2018-05-10T10:51:20.448Z,46.89
2018-05-10T10:52:20.778Z,46.88
2018-05-10T10:53:20.776Z,46.83
2018-05-10T10:54:20.798Z,46.82
2018-05-10T10:55:20.694Z,46.88
2018-05-10T10:56:20.641Z,46.92
2018-05-10T10:57:20.832Z,46.9
2018-05-10T10:58:20.782Z,46.86
2018-05-10T10:59:20.860Z,46.83
2018-05-10T11:00:20.627Z,46.89
2018-05-10T11:01:20.741Z,46.93
2018-05-10T11:02:20.523Z,47.03
2018-05-10T11:03:20.921Z,46.93
2018-05-10T11:04:20.688Z,46.84
2018-05-10T11:05:20.600Z,46.85
2018-05-10T11:06:20.788Z,46.79
2018-05-10T11:07:20.832Z,46.87
2018-05-10T11:08:20.726Z,46.59
2018-05-10T11:09:20.718Z,46.53
2018-05-10T11:10:20.888Z,46.44
2018-05-10T11:11:20.886Z,46.39
2018-05-10T11:12:20.679Z,46.46
2018-05-10T11:13:20.687Z,46.47
2018-05-10T11:14:20.724Z,46.53
2018-05-10T11:15:20.552Z,46.44
2018-05-10T11:16:20.587Z,46.57
2018-05-10T11:17:20.901Z,46.49
2018-05-10T11:18:20.780Z,46.42
2018-05-10T11:19:20.766Z,46.37
2018-05-10T11:20:20.725Z,46.3
2018-05-10T11:21:20.682Z,46.36
2018-05-10T11:22:20.569Z,46.38
2018-05-10T11:23:20.683Z,46.33
2018-05-10T11:24:20.791Z,46.51
2018-05-10T11:25:20.609Z,46.87
2018-05-10T11:26:20.654Z,46.58
2018-05-10T11:27:20.957Z,46.77
2018-05-10T11:28:20.663Z,46.88
2018-05-10T11:29:20.678Z,46.87
2018-05-10T11:30:20.824Z,46.62
2018-05-10T11:31:20.805Z,46.55
2018-05-10T11:32:20.643Z,46.7
2018-05-10T11:33:20.943Z,46.65
2018-05-10T11:34:20.673Z,46.48
2018-05-10T11:35:20.821Z,46.41
2018-05-10T11:36:20.839Z,46.39
2018-05-10T11:37:20.813Z,46.38
2018-05-10T11:38:20.665Z,46.42
2018-05-10T11:39:20.679Z,46.5
2018-05-10T11:40:20.564Z,46.33
2018-05-10T11:41:20.596Z,46.4
2018-05-10T11:42:20.704Z,46.35
2018-05-10T11:43:20.610Z,46.34
2018-05-10T11:44:20.671Z,46.34
2018-05-10T11:45:20.568Z,46.45
2018-05-10T11:46:20.680Z,46.34
2018-05-10T11:47:20.585Z,46.4
2018-05-10T11:48:20.753Z,46.35
2018-05-10T11:49:20.745Z,46.42
2018-05-10T11:50:20.619Z,46.53
2018-05-10T11:51:20.552Z,46.49
2018-05-10T11:52:20.731Z,46.55
2018-05-10T11:53:20.642Z,46.52
2018-05-10T11:54:20.581Z,46.66
2018-05-10T11:55:20.624Z,46.96
2018-05-10T11:56:20.594Z,46.94
2018-05-10T11:57:20.779Z,46.85
2018-05-10T11:58:20.694Z,46.8
2018-05-10T11:59:20.651Z,46.63
2018-05-10T12:00:20.625Z,46.69
2018-05-10T12:01:20.763Z,46.67
2018-05-10T12:02:20.798Z,46.65
2018-05-10T12:03:20.712Z,46.71
2018-05-10T12:04:20.621Z,46.77
2018-05-10T12:05:20.632Z,46.79
2018-05-10T12:06:20.503Z,46.78
2018-05-10T12:07:20.554Z,46.71
2018-05-10T12:08:20.862Z,46.87
2018-05-10T12:09:20.700Z,46.8
2018-05-10T12:10:20.634Z,46.78
2018-05-10T12:11:20.821Z,46.77
2018-05-10T12:12:20.785Z,46.75
2018-05-10T12:13:20.525Z,46.82
2018-05-10T12:14:20.802Z,46.8
2018-05-10T12:15:20.694Z,46.79
2018-05-10T12:16:20.553Z,46.73
2018-05-10T12:17:20.631Z,46.82
2018-05-10T12:18:20.501Z,46.94
2018-05-10T12:19:20.723Z,46.8
2018-05-10T12:20:20.724Z,46.77
2018-05-10T12:21:20.487Z,46.78
2018-05-10T12:22:20.710Z,46.72
2018-05-10T12:23:20.686Z,46.67
2018-05-10T12:24:20.523Z,46.65
2018-05-10T12:25:20.490Z,46.5
2018-05-10T12:26:20.696Z,46.5
2018-05-10T12:27:20.684Z,46.51
2018-05-10T12:28:20.632Z,46.08
2018-05-10T12:29:20.720Z,46.28
2018-05-10T12:30:20.609Z,46.44
2018-05-10T12:31:20.556Z,46.55
2018-05-10T12:32:20.843Z,46.66
2018-05-10T12:33:20.685Z,46.64
2018-05-10T12:34:20.497Z,46.67
2018-05-10T12:35:20.746Z,46.75
2018-05-10T12:36:20.694Z,46.81
2018-05-10T12:37:20.641Z,46.79
2018-05-10T12:38:20.720Z,46.86
2018-05-10T12:39:20.648Z,46.83
2018-05-10T12:40:20.804Z,46.88
2018-05-10T12:41:20.690Z,46.83
2018-05-10T12:42:20.555Z,46.81
2018-05-10T12:43:20.619Z,46.73
2018-05-10T12:44:20.637Z,46.77
2018-05-10T12:45:20.632Z,46.93
2018-05-10T12:46:20.783Z,46.99
2018-05-10T12:47:20.678Z,46.92
2018-05-10T12:48:20.845Z,46.87
2018-05-10T12:49:20.828Z,46.84
2018-05-10T12:50:20.707Z,47.02
2018-05-10T12:51:20.757Z,47.12
2018-05-10T12:52:20.561Z,47.18
2018-05-10T12:53:20.765Z,47.09
2018-05-10T12:54:20.636Z,47.06
2018-05-10T12:55:20.863Z,47.15